sensor_id;sensor_type;location;lat;lon;timestamp;P1;durP1;ratioP1;P2;durP2;ratioP2
17796;SDS011;55596;53.554;9.916;2022-08-01T00:01:46;28.30;;;22.10;;
17796;SDS011;55596;53.554;9.916;2022-08-01T00:04:13;35.00;;;22.50;;
17796;SDS011;55596;53.554;9.916;2022-08-01T00:06:41;27.80;;;19.60;;
17796;SDS011;55596;53.554;9.916;2022-08-01T00:09:08;25.90;;;19.10;;
17796;SDS011;55596;53.554;9.916;2022-08-01T00:11:35;26.53;;;18.03;;
17796;SDS011;55596;53.554;9.916;2022-08-01T00:14:02;30.03;;;19.23;;
17796;SDS011;55596;53.554;9.916;2022-08-01T00:16:29;25.30;;;18.37;;
17796;SDS011;55596;53.554;9.916;2022-08-01T00:18:56;28.33;;;20.00;;
17796;SDS011;55596;53.554;9.916;2022-08-01T00:21:23;26.13;;;18.87;;
17796;SDS011;55596;53.554;9.916;2022-08-01T00:23:51;26.10;;;19.30;;
17796;SDS011;55596;53.554;9.916;2022-08-01T00:26:18;24.73;;;19.17;;
17796;SDS011;55596;53.554;9.916;2022-08-01T00:28:45;29.20;;;21.03;;
17796;SDS011;55596;53.554;9.916;2022-08-01T00:31:12;29.37;;;21.80;;
17796;SDS011;55596;53.554;9.916;2022-08-01T00:33:39;27.63;;;20.93;;
17796;SDS011;55596;53.554;9.916;2022-08-01T00:36:06;29.80;;;22.13;;
17796;SDS011;55596;53.554;9.916;2022-08-01T00:38:33;30.97;;;22.73;;
17796;SDS011;55596;53.554;9.916;2022-08-01T00:41:01;35.93;;;21.93;;
17796;SDS011;55596;53.554;9.916;2022-08-01T00:43:28;36.27;;;23.53;;
17796;SDS011;55596;53.554;9.916;2022-08-01T00:45:55;28.57;;;19.93;;
17796;SDS011;55596;53.554;9.916;2022-08-01T00:48:22;26.87;;;20.13;;
17796;SDS011;55596;53.554;9.916;2022-08-01T00:50:48;29.60;;;20.27;;
17796;SDS011;55596;53.554;9.916;2022-08-01T00:53:16;31.70;;;20.20;;
17796;SDS011;55596;53.554;9.916;2022-08-01T00:55:43;31.90;;;20.60;;
17796;SDS011;55596;53.554;9.916;2022-08-01T00:58:11;28.57;;;20.07;;
17796;SDS011;55596;53.554;9.916;2022-08-01T01:00:38;29.87;;;20.57;;
17796;SDS011;55596;53.554;9.916;2022-08-01T01:03:05;31.53;;;21.33;;
17796;SDS011;55596;53.554;9.916;2022-08-01T01:05:33;30.37;;;21.23;;
17796;SDS011;55596;53.554;9.916;2022-08-01T01:08:07;32.10;;;20.60;;
17796;SDS011;55596;53.554;9.916;2022-08-01T01:10:40;27.90;;;21.00;;
17796;SDS011;55596;53.554;9.916;2022-08-01T01:13:15;26.40;;;18.87;;
17796;SDS011;55596;53.554;9.916;2022-08-01T01:15:49;26.57;;;19.13;;
17796;SDS011;55596;53.554;9.916;2022-08-01T01:18:20;29.93;;;19.13;;
17796;SDS011;55596;53.554;9.916;2022-08-01T01:20:51;26.07;;;18.40;;
17796;SDS011;55596;53.554;9.916;2022-08-01T01:23:29;30.47;;;18.33;;
17796;SDS011;55596;53.554;9.916;2022-08-01T01:26:08;29.80;;;17.67;;
17796;SDS011;55596;53.554;9.916;2022-08-01T01:29:05;32.63;;;17.70;;
17796;SDS011;55596;53.554;9.916;2022-08-01T01:31:36;31.03;;;20.40;;
17796;SDS011;55596;53.554;9.916;2022-08-01T01:34:09;33.23;;;20.73;;
17796;SDS011;55596;53.554;9.916;2022-08-01T01:36:39;29.73;;;20.13;;
17796;SDS011;55596;53.554;9.916;2022-08-01T01:39:07;31.13;;;20.50;;
17796;SDS011;55596;53.554;9.916;2022-08-01T01:41:35;31.30;;;20.57;;
17796;SDS011;55596;53.554;9.916;2022-08-01T01:44:05;28.90;;;20.63;;
17796;SDS011;55596;53.554;9.916;2022-08-01T01:46:33;29.27;;;20.93;;
17796;SDS011;55596;53.554;9.916;2022-08-01T01:49:01;29.23;;;20.90;;
17796;SDS011;55596;53.554;9.916;2022-08-01T01:51:35;35.10;;;21.80;;
17796;SDS011;55596;53.554;9.916;2022-08-01T01:54:03;34.03;;;22.67;;
17796;SDS011;55596;53.554;9.916;2022-08-01T01:56:32;34.57;;;21.00;;
17796;SDS011;55596;53.554;9.916;2022-08-01T01:59:15;30.83;;;21.10;;
17796;SDS011;55596;53.554;9.916;2022-08-01T02:01:44;31.27;;;20.27;;
17796;SDS011;55596;53.554;9.916;2022-08-01T02:04:14;27.27;;;19.30;;
17796;SDS011;55596;53.554;9.916;2022-08-01T02:06:41;26.20;;;19.23;;
17796;SDS011;55596;53.554;9.916;2022-08-01T02:09:09;25.33;;;19.03;;
17796;SDS011;55596;53.554;9.916;2022-08-01T02:11:37;24.10;;;18.17;;
17796;SDS011;55596;53.554;9.916;2022-08-01T02:14:06;28.57;;;18.53;;
17796;SDS011;55596;53.554;9.916;2022-08-01T02:16:36;27.43;;;19.17;;
17796;SDS011;55596;53.554;9.916;2022-08-01T02:19:05;27.53;;;19.20;;
17796;SDS011;55596;53.554;9.916;2022-08-01T02:21:33;26.67;;;19.20;;
17796;SDS011;55596;53.554;9.916;2022-08-01T02:24:06;27.73;;;18.50;;
17796;SDS011;55596;53.554;9.916;2022-08-01T02:26:38;22.83;;;17.37;;
17796;SDS011;55596;53.554;9.916;2022-08-01T02:29:06;25.20;;;17.70;;
17796;SDS011;55596;53.554;9.916;2022-08-01T02:31:38;26.63;;;17.47;;
17796;SDS011;55596;53.554;9.916;2022-08-01T02:34:10;23.40;;;17.23;;
17796;SDS011;55596;53.554;9.916;2022-08-01T02:36:43;22.23;;;16.83;;
17796;SDS011;55596;53.554;9.916;2022-08-01T02:39:12;27.07;;;17.43;;
17796;SDS011;55596;53.554;9.916;2022-08-01T02:41:42;26.07;;;18.20;;
17796;SDS011;55596;53.554;9.916;2022-08-01T02:44:10;30.90;;;18.03;;
17796;SDS011;55596;53.554;9.916;2022-08-01T02:46:43;25.53;;;18.13;;
17796;SDS011;55596;53.554;9.916;2022-08-01T02:49:15;27.30;;;18.27;;
17796;SDS011;55596;53.554;9.916;2022-08-01T02:51:44;31.13;;;19.07;;
17796;SDS011;55596;53.554;9.916;2022-08-01T02:54:13;26.30;;;18.70;;
17796;SDS011;55596;53.554;9.916;2022-08-01T02:56:43;25.10;;;17.83;;
17796;SDS011;55596;53.554;9.916;2022-08-01T02:59:13;24.07;;;16.40;;
17796;SDS011;55596;53.554;9.916;2022-08-01T03:01:44;28.23;;;17.90;;
17796;SDS011;55596;53.554;9.916;2022-08-01T03:04:12;24.27;;;17.77;;
17796;SDS011;55596;53.554;9.916;2022-08-01T03:06:43;23.80;;;18.20;;
17796;SDS011;55596;53.554;9.916;2022-08-01T03:09:11;22.60;;;16.80;;
17796;SDS011;55596;53.554;9.916;2022-08-01T03:11:39;27.17;;;17.87;;
17796;SDS011;55596;53.554;9.916;2022-08-01T03:14:08;25.10;;;18.07;;
17796;SDS011;55596;53.554;9.916;2022-08-01T03:16:38;23.77;;;17.07;;
17796;SDS011;55596;53.554;9.916;2022-08-01T03:19:09;23.13;;;18.53;;
17796;SDS011;55596;53.554;9.916;2022-08-01T03:21:38;18.57;;;16.10;;
17796;SDS011;55596;53.554;9.916;2022-08-01T03:24:07;22.67;;;16.77;;
17796;SDS011;55596;53.554;9.916;2022-08-01T03:26:36;25.33;;;16.57;;
17796;SDS011;55596;53.554;9.916;2022-08-01T03:29:06;20.87;;;15.00;;
17796;SDS011;55596;53.554;9.916;2022-08-01T03:31:37;23.60;;;15.93;;
17796;SDS011;55596;53.554;9.916;2022-08-01T03:34:09;26.03;;;16.77;;
17796;SDS011;55596;53.554;9.916;2022-08-01T03:36:37;23.07;;;15.30;;
17796;SDS011;55596;53.554;9.916;2022-08-01T03:39:11;19.60;;;13.83;;
17796;SDS011;55596;53.554;9.916;2022-08-01T03:41:40;16.60;;;13.30;;
17796;SDS011;55596;53.554;9.916;2022-08-01T03:44:13;22.60;;;14.30;;
17796;SDS011;55596;53.554;9.916;2022-08-01T03:46:42;21.43;;;13.87;;
17796;SDS011;55596;53.554;9.916;2022-08-01T03:49:14;18.87;;;13.20;;
17796;SDS011;55596;53.554;9.916;2022-08-01T03:51:46;18.93;;;12.43;;
17796;SDS011;55596;53.554;9.916;2022-08-01T03:54:16;15.73;;;12.27;;
17796;SDS011;55596;53.554;9.916;2022-08-01T03:56:46;14.77;;;12.40;;
17796;SDS011;55596;53.554;9.916;2022-08-01T03:59:16;15.50;;;11.47;;
17796;SDS011;55596;53.554;9.916;2022-08-01T04:01:46;15.43;;;10.87;;
17796;SDS011;55596;53.554;9.916;2022-08-01T04:04:15;20.10;;;10.53;;
17796;SDS011;55596;53.554;9.916;2022-08-01T04:06:42;13.97;;;9.53;;
17796;SDS011;55596;53.554;9.916;2022-08-01T04:09:10;11.47;;;9.00;;
17796;SDS011;55596;53.554;9.916;2022-08-01T04:11:38;10.57;;;7.40;;
17796;SDS011;55596;53.554;9.916;2022-08-01T04:14:05;11.40;;;7.83;;
17796;SDS011;55596;53.554;9.916;2022-08-01T04:16:32;13.27;;;8.10;;
17796;SDS011;55596;53.554;9.916;2022-08-01T04:18:59;13.43;;;7.60;;
17796;SDS011;55596;53.554;9.916;2022-08-01T04:21:28;11.57;;;7.40;;
17796;SDS011;55596;53.554;9.916;2022-08-01T04:23:59;11.77;;;7.67;;
17796;SDS011;55596;53.554;9.916;2022-08-01T04:26:30;10.13;;;6.93;;
17796;SDS011;55596;53.554;9.916;2022-08-01T04:28:58;9.60;;;7.70;;
17796;SDS011;55596;53.554;9.916;2022-08-01T04:31:27;8.93;;;6.47;;
17796;SDS011;55596;53.554;9.916;2022-08-01T04:33:57;14.50;;;6.57;;
17796;SDS011;55596;53.554;9.916;2022-08-01T04:36:25;11.40;;;6.63;;
17796;SDS011;55596;53.554;9.916;2022-08-01T04:38:55;12.07;;;7.57;;
17796;SDS011;55596;53.554;9.916;2022-08-01T04:41:26;10.30;;;7.53;;
17796;SDS011;55596;53.554;9.916;2022-08-01T04:43:56;11.50;;;6.20;;
17796;SDS011;55596;53.554;9.916;2022-08-01T04:46:24;14.23;;;6.90;;
17796;SDS011;55596;53.554;9.916;2022-08-01T04:48:52;9.60;;;6.30;;
17796;SDS011;55596;53.554;9.916;2022-08-01T04:51:20;7.20;;;5.07;;
17796;SDS011;55596;53.554;9.916;2022-08-01T04:53:49;7.37;;;5.00;;
17796;SDS011;55596;53.554;9.916;2022-08-01T04:56:17;5.60;;;4.20;;
17796;SDS011;55596;53.554;9.916;2022-08-01T04:58:44;5.33;;;3.93;;
17796;SDS011;55596;53.554;9.916;2022-08-01T05:01:11;7.73;;;4.63;;
17796;SDS011;55596;53.554;9.916;2022-08-01T05:03:38;6.77;;;4.30;;
17796;SDS011;55596;53.554;9.916;2022-08-01T05:06:05;6.40;;;4.30;;
17796;SDS011;55596;53.554;9.916;2022-08-01T05:08:32;7.37;;;4.40;;
17796;SDS011;55596;53.554;9.916;2022-08-01T05:11:02;6.10;;;4.50;;
17796;SDS011;55596;53.554;9.916;2022-08-01T05:13:29;5.33;;;4.80;;
17796;SDS011;55596;53.554;9.916;2022-08-01T05:15:56;9.77;;;5.57;;
17796;SDS011;55596;53.554;9.916;2022-08-01T05:18:23;6.90;;;5.70;;
17796;SDS011;55596;53.554;9.916;2022-08-01T05:20:50;13.90;;;6.90;;
17796;SDS011;55596;53.554;9.916;2022-08-01T05:23:17;8.77;;;6.97;;
17796;SDS011;55596;53.554;9.916;2022-08-01T05:25:44;7.87;;;7.07;;
17796;SDS011;55596;53.554;9.916;2022-08-01T05:28:12;8.90;;;7.67;;
17796;SDS011;55596;53.554;9.916;2022-08-01T05:30:39;11.17;;;7.23;;
17796;SDS011;55596;53.554;9.916;2022-08-01T05:33:06;9.90;;;8.30;;
17796;SDS011;55596;53.554;9.916;2022-08-01T05:35:34;12.83;;;9.27;;
17796;SDS011;55596;53.554;9.916;2022-08-01T05:38:01;10.13;;;9.13;;
17796;SDS011;55596;53.554;9.916;2022-08-01T05:40:27;11.17;;;9.00;;
17796;SDS011;55596;53.554;9.916;2022-08-01T05:42:54;9.90;;;8.97;;
17796;SDS011;55596;53.554;9.916;2022-08-01T05:45:23;10.33;;;9.43;;
17796;SDS011;55596;53.554;9.916;2022-08-01T05:47:49;10.60;;;9.60;;
17796;SDS011;55596;53.554;9.916;2022-08-01T05:50:16;10.40;;;7.60;;
17796;SDS011;55596;53.554;9.916;2022-08-01T05:52:45;7.63;;;6.43;;
17796;SDS011;55596;53.554;9.916;2022-08-01T05:55:13;12.37;;;6.63;;
17796;SDS011;55596;53.554;9.916;2022-08-01T05:57:39;6.73;;;5.97;;
17796;SDS011;55596;53.554;9.916;2022-08-01T06:00:07;8.70;;;5.33;;
17796;SDS011;55596;53.554;9.916;2022-08-01T06:02:40;8.37;;;4.63;;
17796;SDS011;55596;53.554;9.916;2022-08-01T06:05:08;8.20;;;4.87;;
17796;SDS011;55596;53.554;9.916;2022-08-01T06:07:36;7.87;;;5.60;;
17796;SDS011;55596;53.554;9.916;2022-08-01T06:10:04;9.47;;;6.00;;
17796;SDS011;55596;53.554;9.916;2022-08-01T06:12:32;10.67;;;5.83;;
17796;SDS011;55596;53.554;9.916;2022-08-01T06:14:59;12.80;;;6.27;;
17796;SDS011;55596;53.554;9.916;2022-08-01T06:17:26;12.00;;;6.47;;
17796;SDS011;55596;53.554;9.916;2022-08-01T06:19:54;9.60;;;6.20;;
17796;SDS011;55596;53.554;9.916;2022-08-01T06:22:21;11.17;;;6.43;;
17796;SDS011;55596;53.554;9.916;2022-08-01T06:24:48;13.10;;;6.87;;
17796;SDS011;55596;53.554;9.916;2022-08-01T06:27:15;9.50;;;5.87;;
17796;SDS011;55596;53.554;9.916;2022-08-01T06:29:42;12.63;;;5.90;;
17796;SDS011;55596;53.554;9.916;2022-08-01T06:32:09;8.27;;;4.97;;
17796;SDS011;55596;53.554;9.916;2022-08-01T06:34:36;6.47;;;4.00;;
17796;SDS011;55596;53.554;9.916;2022-08-01T06:37:04;9.77;;;4.17;;
17796;SDS011;55596;53.554;9.916;2022-08-01T06:39:31;8.80;;;4.20;;
17796;SDS011;55596;53.554;9.916;2022-08-01T06:41:58;9.13;;;4.40;;
17796;SDS011;55596;53.554;9.916;2022-08-01T06:44:25;7.93;;;3.80;;
17796;SDS011;55596;53.554;9.916;2022-08-01T06:46:52;7.27;;;3.60;;
17796;SDS011;55596;53.554;9.916;2022-08-01T06:49:19;9.03;;;4.00;;
17796;SDS011;55596;53.554;9.916;2022-08-01T06:51:46;7.63;;;3.60;;
17796;SDS011;55596;53.554;9.916;2022-08-01T06:54:14;10.20;;;4.27;;
17796;SDS011;55596;53.554;9.916;2022-08-01T06:56:42;11.60;;;4.30;;
17796;SDS011;55596;53.554;9.916;2022-08-01T06:59:09;10.13;;;3.33;;
17796;SDS011;55596;53.554;9.916;2022-08-01T07:01:36;9.17;;;3.30;;
17796;SDS011;55596;53.554;9.916;2022-08-01T07:04:03;11.57;;;3.03;;
17796;SDS011;55596;53.554;9.916;2022-08-01T07:06:30;8.70;;;3.57;;
17796;SDS011;55596;53.554;9.916;2022-08-01T07:08:57;12.07;;;3.30;;
17796;SDS011;55596;53.554;9.916;2022-08-01T07:11:27;8.23;;;3.13;;
17796;SDS011;55596;53.554;9.916;2022-08-01T07:13:54;8.67;;;3.27;;
17796;SDS011;55596;53.554;9.916;2022-08-01T07:16:21;18.67;;;3.70;;
17796;SDS011;55596;53.554;9.916;2022-08-01T07:18:48;10.83;;;3.90;;
17796;SDS011;55596;53.554;9.916;2022-08-01T07:21:16;12.00;;;4.47;;
17796;SDS011;55596;53.554;9.916;2022-08-01T07:23:43;14.37;;;4.33;;
17796;SDS011;55596;53.554;9.916;2022-08-01T07:26:10;14.30;;;4.57;;
17796;SDS011;55596;53.554;9.916;2022-08-01T07:28:39;18.87;;;4.63;;
17796;SDS011;55596;53.554;9.916;2022-08-01T07:31:05;16.80;;;4.50;;
17796;SDS011;55596;53.554;9.916;2022-08-01T07:33:32;15.70;;;4.60;;
17796;SDS011;55596;53.554;9.916;2022-08-01T07:35:59;19.27;;;4.30;;
17796;SDS011;55596;53.554;9.916;2022-08-01T07:38:26;14.90;;;4.23;;
17796;SDS011;55596;53.554;9.916;2022-08-01T07:40:53;19.83;;;4.57;;
17796;SDS011;55596;53.554;9.916;2022-08-01T07:43:20;19.73;;;4.60;;
17796;SDS011;55596;53.554;9.916;2022-08-01T07:45:48;16.53;;;4.27;;
17796;SDS011;55596;53.554;9.916;2022-08-01T07:48:15;18.90;;;3.97;;
17796;SDS011;55596;53.554;9.916;2022-08-01T07:50:42;18.97;;;4.03;;
17796;SDS011;55596;53.554;9.916;2022-08-01T07:53:09;15.83;;;3.97;;
17796;SDS011;55596;53.554;9.916;2022-08-01T07:55:36;17.03;;;3.83;;
17796;SDS011;55596;53.554;9.916;2022-08-01T07:58:03;15.00;;;3.27;;
17796;SDS011;55596;53.554;9.916;2022-08-01T08:00:30;14.33;;;3.33;;
17796;SDS011;55596;53.554;9.916;2022-08-01T08:02:58;16.67;;;3.53;;
17796;SDS011;55596;53.554;9.916;2022-08-01T08:05:25;17.17;;;3.30;;
17796;SDS011;55596;53.554;9.916;2022-08-01T08:07:52;14.07;;;3.07;;
17796;SDS011;55596;53.554;9.916;2022-08-01T08:10:20;8.17;;;2.13;;
17796;SDS011;55596;53.554;9.916;2022-08-01T08:12:46;11.27;;;2.70;;
17796;SDS011;55596;53.554;9.916;2022-08-01T08:15:13;7.63;;;2.10;;
17796;SDS011;55596;53.554;9.916;2022-08-01T08:17:40;9.70;;;2.33;;
17796;SDS011;55596;53.554;9.916;2022-08-01T08:20:09;9.93;;;2.10;;
17796;SDS011;55596;53.554;9.916;2022-08-01T08:22:37;9.50;;;2.10;;
17796;SDS011;55596;53.554;9.916;2022-08-01T08:25:04;7.63;;;2.10;;
17796;SDS011;55596;53.554;9.916;2022-08-01T08:27:32;7.10;;;1.93;;
17796;SDS011;55596;53.554;9.916;2022-08-01T08:29:59;8.70;;;2.10;;
17796;SDS011;55596;53.554;9.916;2022-08-01T08:32:26;8.53;;;2.23;;
17796;SDS011;55596;53.554;9.916;2022-08-01T08:34:53;11.40;;;2.73;;
17796;SDS011;55596;53.554;9.916;2022-08-01T08:37:21;14.37;;;2.40;;
17796;SDS011;55596;53.554;9.916;2022-08-01T08:39:48;14.17;;;2.60;;
17796;SDS011;55596;53.554;9.916;2022-08-01T08:42:15;12.13;;;3.10;;
17796;SDS011;55596;53.554;9.916;2022-08-01T08:44:42;13.60;;;2.20;;
17796;SDS011;55596;53.554;9.916;2022-08-01T08:47:09;10.90;;;2.40;;
17796;SDS011;55596;53.554;9.916;2022-08-01T08:49:37;10.73;;;2.10;;
17796;SDS011;55596;53.554;9.916;2022-08-01T08:52:05;8.43;;;2.03;;
17796;SDS011;55596;53.554;9.916;2022-08-01T08:54:34;8.17;;;2.10;;
17796;SDS011;55596;53.554;9.916;2022-08-01T08:57:04;6.90;;;1.77;;
17796;SDS011;55596;53.554;9.916;2022-08-01T08:59:31;14.23;;;2.47;;
17796;SDS011;55596;53.554;9.916;2022-08-01T09:01:59;6.20;;;1.87;;
17796;SDS011;55596;53.554;9.916;2022-08-01T09:04:26;8.07;;;2.00;;
17796;SDS011;55596;53.554;9.916;2022-08-01T09:06:53;6.93;;;2.13;;
17796;SDS011;55596;53.554;9.916;2022-08-01T09:09:20;8.93;;;1.73;;
17796;SDS011;55596;53.554;9.916;2022-08-01T09:11:49;14.37;;;2.80;;
17796;SDS011;55596;53.554;9.916;2022-08-01T09:14:17;10.33;;;2.10;;
17796;SDS011;55596;53.554;9.916;2022-08-01T09:16:58;13.90;;;2.07;;
17796;SDS011;55596;53.554;9.916;2022-08-01T09:19:25;9.73;;;2.23;;
17796;SDS011;55596;53.554;9.916;2022-08-01T09:22:03;13.00;;;3.13;;
17796;SDS011;55596;53.554;9.916;2022-08-01T09:24:32;15.33;;;2.70;;
17796;SDS011;55596;53.554;9.916;2022-08-01T09:27:01;13.60;;;2.90;;
17796;SDS011;55596;53.554;9.916;2022-08-01T09:29:40;13.23;;;2.33;;
17796;SDS011;55596;53.554;9.916;2022-08-01T09:32:09;12.47;;;2.90;;
17796;SDS011;55596;53.554;9.916;2022-08-01T09:34:36;14.13;;;3.77;;
17796;SDS011;55596;53.554;9.916;2022-08-01T09:37:03;15.93;;;2.77;;
17796;SDS011;55596;53.554;9.916;2022-08-01T09:39:32;15.60;;;3.30;;
17796;SDS011;55596;53.554;9.916;2022-08-01T09:44:48;13.50;;;3.00;;
17796;SDS011;55596;53.554;9.916;2022-08-01T09:47:15;13.83;;;2.90;;
17796;SDS011;55596;53.554;9.916;2022-08-01T09:49:45;15.23;;;3.27;;
17796;SDS011;55596;53.554;9.916;2022-08-01T09:52:20;10.73;;;3.10;;
17796;SDS011;55596;53.554;9.916;2022-08-01T09:54:51;17.80;;;3.23;;
17796;SDS011;55596;53.554;9.916;2022-08-01T09:57:21;13.37;;;3.13;;
17796;SDS011;55596;53.554;9.916;2022-08-01T09:59:49;14.07;;;3.00;;
17796;SDS011;55596;53.554;9.916;2022-08-01T10:02:26;12.73;;;2.43;;
17796;SDS011;55596;53.554;9.916;2022-08-01T10:04:54;15.70;;;2.90;;
17796;SDS011;55596;53.554;9.916;2022-08-01T10:07:21;9.03;;;2.60;;
17796;SDS011;55596;53.554;9.916;2022-08-01T10:09:48;10.83;;;2.60;;
17796;SDS011;55596;53.554;9.916;2022-08-01T10:12:16;12.73;;;3.37;;
17796;SDS011;55596;53.554;9.916;2022-08-01T10:14:47;10.83;;;2.70;;
17796;SDS011;55596;53.554;9.916;2022-08-01T10:17:15;12.17;;;2.70;;
17796;SDS011;55596;53.554;9.916;2022-08-01T10:19:44;13.33;;;2.57;;
17796;SDS011;55596;53.554;9.916;2022-08-01T10:22:13;14.80;;;2.87;;
17796;SDS011;55596;53.554;9.916;2022-08-01T10:24:42;10.37;;;2.63;;
17796;SDS011;55596;53.554;9.916;2022-08-01T10:27:11;11.33;;;2.87;;
17796;SDS011;55596;53.554;9.916;2022-08-01T10:29:41;11.27;;;2.33;;
17796;SDS011;55596;53.554;9.916;2022-08-01T10:32:13;8.03;;;2.27;;
17796;SDS011;55596;53.554;9.916;2022-08-01T10:34:41;9.50;;;2.10;;
17796;SDS011;55596;53.554;9.916;2022-08-01T10:37:09;9.33;;;1.90;;
17796;SDS011;55596;53.554;9.916;2022-08-01T10:39:36;11.43;;;2.30;;
17796;SDS011;55596;53.554;9.916;2022-08-01T10:42:05;9.87;;;2.17;;
17796;SDS011;55596;53.554;9.916;2022-08-01T10:44:35;6.47;;;1.90;;
17796;SDS011;55596;53.554;9.916;2022-08-01T10:47:04;7.80;;;2.10;;
17796;SDS011;55596;53.554;9.916;2022-08-01T10:49:41;11.27;;;2.23;;
17796;SDS011;55596;53.554;9.916;2022-08-01T10:52:14;11.57;;;1.97;;
17796;SDS011;55596;53.554;9.916;2022-08-01T10:54:41;10.13;;;2.07;;
17796;SDS011;55596;53.554;9.916;2022-08-01T10:57:08;10.27;;;2.10;;
17796;SDS011;55596;53.554;9.916;2022-08-01T10:59:35;10.60;;;1.93;;
17796;SDS011;55596;53.554;9.916;2022-08-01T11:02:27;13.23;;;2.20;;
17796;SDS011;55596;53.554;9.916;2022-08-01T11:04:57;12.07;;;2.13;;
17796;SDS011;55596;53.554;9.916;2022-08-01T11:07:42;9.87;;;2.20;;
17796;SDS011;55596;53.554;9.916;2022-08-01T11:10:16;9.30;;;2.07;;
17796;SDS011;55596;53.554;9.916;2022-08-01T11:12:49;6.90;;;1.80;;
17796;SDS011;55596;53.554;9.916;2022-08-01T11:15:19;6.97;;;1.63;;
17796;SDS011;55596;53.554;9.916;2022-08-01T11:17:51;9.40;;;2.00;;
17796;SDS011;55596;53.554;9.916;2022-08-01T11:20:21;6.93;;;2.00;;
17796;SDS011;55596;53.554;9.916;2022-08-01T11:26:08;7.67;;;2.07;;
17796;SDS011;55596;53.554;9.916;2022-08-01T11:28:36;9.20;;;2.73;;
17796;SDS011;55596;53.554;9.916;2022-08-01T11:33:54;13.43;;;2.10;;
17796;SDS011;55596;53.554;9.916;2022-08-01T11:36:22;7.13;;;1.77;;
17796;SDS011;55596;53.554;9.916;2022-08-01T11:38:50;10.13;;;2.17;;
17796;SDS011;55596;53.554;9.916;2022-08-01T11:41:38;5.18;;;1.42;;
17796;SDS011;55596;53.554;9.916;2022-08-01T11:44:06;5.93;;;1.70;;
17796;SDS011;55596;53.554;9.916;2022-08-01T11:46:47;6.95;;;1.73;;
17796;SDS011;55596;53.554;9.916;2022-08-01T11:49:26;9.95;;;1.95;;
17796;SDS011;55596;53.554;9.916;2022-08-01T11:52:12;8.75;;;2.10;;
17796;SDS011;55596;53.554;9.916;2022-08-01T11:54:41;7.20;;;2.00;;
17796;SDS011;55596;53.554;9.916;2022-08-01T11:57:10;8.85;;;2.58;;
17796;SDS011;55596;53.554;9.916;2022-08-01T11:59:39;13.32;;;2.13;;
17796;SDS011;55596;53.554;9.916;2022-08-01T12:02:18;7.55;;;2.17;;
17796;SDS011;55596;53.554;9.916;2022-08-01T12:04:47;4.50;;;1.65;;
17796;SDS011;55596;53.554;9.916;2022-08-01T12:07:17;5.15;;;1.50;;
17796;SDS011;55596;53.554;9.916;2022-08-01T12:09:45;6.30;;;2.08;;
17796;SDS011;55596;53.554;9.916;2022-08-01T12:12:14;5.95;;;1.73;;
17796;SDS011;55596;53.554;9.916;2022-08-01T12:14:45;8.07;;;2.00;;
17796;SDS011;55596;53.554;9.916;2022-08-01T12:17:26;6.47;;;1.90;;
17796;SDS011;55596;53.554;9.916;2022-08-01T12:19:54;8.60;;;2.17;;
17796;SDS011;55596;53.554;9.916;2022-08-01T12:22:23;6.72;;;1.90;;
17796;SDS011;55596;53.554;9.916;2022-08-01T12:24:51;7.55;;;1.90;;
17796;SDS011;55596;53.554;9.916;2022-08-01T12:27:25;8.90;;;1.98;;
17796;SDS011;55596;53.554;9.916;2022-08-01T12:29:53;4.20;;;1.80;;
17796;SDS011;55596;53.554;9.916;2022-08-01T12:32:21;7.50;;;1.83;;
17796;SDS011;55596;53.554;9.916;2022-08-01T12:34:50;8.23;;;2.22;;
17796;SDS011;55596;53.554;9.916;2022-08-01T12:37:18;7.40;;;2.22;;
17796;SDS011;55596;53.554;9.916;2022-08-01T12:39:46;9.45;;;2.20;;
17796;SDS011;55596;53.554;9.916;2022-08-01T12:42:13;7.95;;;1.67;;
17796;SDS011;55596;53.554;9.916;2022-08-01T12:44:41;5.10;;;1.45;;
17796;SDS011;55596;53.554;9.916;2022-08-01T12:47:11;9.35;;;2.00;;
17796;SDS011;55596;53.554;9.916;2022-08-01T12:49:40;11.25;;;2.25;;
17796;SDS011;55596;53.554;9.916;2022-08-01T12:52:09;6.28;;;2.33;;
17796;SDS011;55596;53.554;9.916;2022-08-01T12:57:27;12.23;;;1.80;;
17796;SDS011;55596;53.554;9.916;2022-08-01T13:00:04;5.18;;;1.55;;
17796;SDS011;55596;53.554;9.916;2022-08-01T13:02:36;6.05;;;1.50;;
17796;SDS011;55596;53.554;9.916;2022-08-01T13:05:04;6.47;;;1.55;;
17796;SDS011;55596;53.554;9.916;2022-08-01T13:07:39;4.82;;;1.65;;
17796;SDS011;55596;53.554;9.916;2022-08-01T13:10:09;6.13;;;1.48;;
17796;SDS011;55596;53.554;9.916;2022-08-01T13:12:37;5.00;;;1.48;;
17796;SDS011;55596;53.554;9.916;2022-08-01T13:15:21;7.40;;;1.50;;
17796;SDS011;55596;53.554;9.916;2022-08-01T13:17:53;7.18;;;1.60;;
17796;SDS011;55596;53.554;9.916;2022-08-01T13:20:21;6.90;;;1.80;;
17796;SDS011;55596;53.554;9.916;2022-08-01T13:22:52;7.20;;;1.88;;
17796;SDS011;55596;53.554;9.916;2022-08-01T13:25:20;9.30;;;1.92;;
17796;SDS011;55596;53.554;9.916;2022-08-01T13:27:47;8.98;;;1.83;;
17796;SDS011;55596;53.554;9.916;2022-08-01T13:30:15;6.80;;;2.03;;
17796;SDS011;55596;53.554;9.916;2022-08-01T13:32:43;4.55;;;1.67;;
17796;SDS011;55596;53.554;9.916;2022-08-01T13:35:22;6.43;;;1.70;;
17796;SDS011;55596;53.554;9.916;2022-08-01T13:37:49;7.00;;;1.67;;
17796;SDS011;55596;53.554;9.916;2022-08-01T13:40:24;4.93;;;1.90;;
17796;SDS011;55596;53.554;9.916;2022-08-01T13:42:52;8.05;;;2.17;;
17796;SDS011;55596;53.554;9.916;2022-08-01T13:45:20;6.60;;;1.80;;
17796;SDS011;55596;53.554;9.916;2022-08-01T13:47:47;10.85;;;1.75;;
17796;SDS011;55596;53.554;9.916;2022-08-01T13:50:14;3.97;;;1.40;;
17796;SDS011;55596;53.554;9.916;2022-08-01T13:52:41;5.70;;;1.40;;
17796;SDS011;55596;53.554;9.916;2022-08-01T13:55:08;6.28;;;1.45;;
17796;SDS011;55596;53.554;9.916;2022-08-01T13:57:36;8.52;;;1.55;;
17796;SDS011;55596;53.554;9.916;2022-08-01T14:00:04;3.83;;;1.30;;
17796;SDS011;55596;53.554;9.916;2022-08-01T14:02:32;6.75;;;1.50;;
17796;SDS011;55596;53.554;9.916;2022-08-01T14:04:59;6.50;;;1.95;;
17796;SDS011;55596;53.554;9.916;2022-08-01T14:07:26;5.25;;;1.33;;
17796;SDS011;55596;53.554;9.916;2022-08-01T14:09:54;4.70;;;1.60;;
17796;SDS011;55596;53.554;9.916;2022-08-01T14:12:20;4.05;;;1.20;;
17796;SDS011;55596;53.554;9.916;2022-08-01T14:14:49;4.68;;;1.52;;
17796;SDS011;55596;53.554;9.916;2022-08-01T14:17:16;7.85;;;1.85;;
17796;SDS011;55596;53.554;9.916;2022-08-01T14:19:43;8.88;;;1.20;;
17796;SDS011;55596;53.554;9.916;2022-08-01T14:22:10;5.32;;;1.63;;
17796;SDS011;55596;53.554;9.916;2022-08-01T14:24:37;6.10;;;1.60;;
17796;SDS011;55596;53.554;9.916;2022-08-01T14:27:04;7.93;;;1.70;;
17796;SDS011;55596;53.554;9.916;2022-08-01T14:29:31;6.55;;;1.63;;
17796;SDS011;55596;53.554;9.916;2022-08-01T14:31:59;8.50;;;1.80;;
17796;SDS011;55596;53.554;9.916;2022-08-01T14:34:26;5.65;;;1.85;;
17796;SDS011;55596;53.554;9.916;2022-08-01T14:36:53;5.82;;;1.30;;
17796;SDS011;55596;53.554;9.916;2022-08-01T14:39:20;4.05;;;1.40;;
17796;SDS011;55596;53.554;9.916;2022-08-01T14:41:48;5.43;;;1.48;;
17796;SDS011;55596;53.554;9.916;2022-08-01T14:44:15;6.40;;;1.70;;
17796;SDS011;55596;53.554;9.916;2022-08-01T14:46:42;6.00;;;1.50;;
17796;SDS011;55596;53.554;9.916;2022-08-01T14:49:11;6.57;;;1.60;;
17796;SDS011;55596;53.554;9.916;2022-08-01T14:51:38;7.85;;;1.98;;
17796;SDS011;55596;53.554;9.916;2022-08-01T14:54:05;6.80;;;1.55;;
17796;SDS011;55596;53.554;9.916;2022-08-01T14:56:33;6.22;;;1.70;;
17796;SDS011;55596;53.554;9.916;2022-08-01T14:59:00;4.07;;;1.58;;